Cleveland, Ohio
Traffic Map
Current Weather Conditions
Cleveland, Ohio
Scattered Clouds
Scattered Clouds
19°
Feels Like: 19°
Wind Chill: 19° Ceiling: Unl
Heat Index: 19° Visibility: 10mi
Dew Point: 12° Wind: 18mph
Humidity: 63% Direction: 340° (NNW)
Pressure: 29.92in Gusts: 0mph
Raw Report DataKBKL 282153Z 34016KT 10SM SCT070 19/12 A2992 RMK AO2 SLP129 T01890117 $
Traffic Incident Summary
Active as of:
Severity:
Category:
InformationThere was an issue retrieving the traffic information for this location. Please try a different location or try again shortly.
Advertisements
Track Severe Weather on mobile